KAWG

Washington Municipal Airport

Washington, Iowa, USA
METAR KAWG 201335Z AUTO 29015G20KT 10SM CLR 08/03 A3007 RMK AO2
Observed Flight Rules
Oct-20 @ 13:35 UTC (9 minutes ago) Visual Flight Rules
Wind Visibility Clouds
290° at 15 knots
 Gusting to 20 knots
10 miles
  • Clear skies
Temperatures Readings
Current 8°C / 46°F
Dewpoint 3°C / 37°F
Humidity 71%
Altimeter 30.07" Hg
Pressure 1018 hPa
Elevation 230
METAR KAWG 201335Z AUTO 29015G20KT 10SM CLR 08/03 A3007 RMK AO2
Observed Flight Rules
Oct-20 @ 13:35 UTC
(9 minutes ago)
VFR
Wind Visibility
290° at 15 knots
 Gusting to 20 knots
10 miles
Clouds
  • Clear skies
Temperature Dewpoint
8°C / 46°F 3°C / 37°F
Humidity Altimeter Pressure
71% 30.07" Hg 1018 hPa